^^
Saratoga-Weather Station Historical Data
Daily Summary for February 3, 2020 Units:  Both    English   Metric
Daily Weekly Monthly Yearly Custom
  High: Low: Average:
Temperature: 77 °F /  25 °C 52 °F /  11.1 °C 63.7 °F /  17.6 °C
Dew Point: 55.6 °F /  13.1 °C 49.3 °F /  9.6 °C 51.8 °F /  11 °C
Humidity: 92% 42% 68%
Wind Speed: 6.9mph /  11.1km/h - 1.1mph /  1.8km/h
Wind Gust: 12mph /  19.3km/h - -
Wind- - WSW
Pressure: 30.2 in /  1021.3 hPa 30.1 in /  1018.3 hPa -
Precipitation: 0 in /  0.0 mm    
Historical Graphs
 
 
Tabular Data for February 3, 2020
Time Temperature Dew Point Pressure Wind Wind Speed Wind Gust Humidity Rainfall Rate (Hourly) solar
00:04 55.2 °F /  12.9 °C 50.2 °F /  10.1 °C 30.1in /  1018.6hPa Calm     83% 0in /  0.0mm 0 W/m2
00:10 55.2 °F /  12.9 °C 50.5 °F /  10.3 °C 30.1in /  1018.6hPa Calm     84% 0in /  0.0mm 0 W/m2
00:15 55 °F /  12.8 °C 50.4 °F /  10.2 °C 30.1in /  1018.6hPa Calm     84% 0in /  0.0mm 0 W/m2
00:20 55 °F /  12.8 °C 50.4 °F /  10.2 °C 30.1in /  1018.6hPa Calm     84% 0in /  0.0mm 0 W/m2
00:25 55 °F /  12.8 °C 50.4 °F /  10.2 °C 30.1in /  1018.6hPa Calm     84% 0in /  0.0mm 0 W/m2
00:30 55 °F /  12.8 °C 50.5 °F /  10.3 °C 30.1in /  1018.6hPa Calm     85% 0in /  0.0mm 0 W/m2
00:35 55 °F /  12.8 °C 50.5 °F /  10.3 °C 30.1in /  1018.6hPa Calm     85% 0in /  0.0mm 0 W/m2
00:40 55 °F /  12.8 °C 50.5 °F /  10.3 °C 30.1in /  1018.6hPa Calm     85% 0in /  0.0mm 0 W/m2
00:45 55 °F /  12.8 °C 50.4 °F /  10.2 °C 30.1in /  1018.6hPa Calm     84% 0in /  0.0mm 0 W/m2
00:50 55 °F /  12.8 °C 50.4 °F /  10.2 °C 30.1in /  1018.6hPa Calm     84% 0in /  0.0mm 0 W/m2
00:55 55 °F /  12.8 °C 50.4 °F /  10.2 °C 30.1in /  1018.6hPa Calm     84% 0in /  0.0mm 0 W/m2
01:00 54.9 °F /  12.7 °C 50.2 °F /  10.1 °C 30.1in /  1018.6hPa Calm     84% 0in /  0.0mm 0 W/m2
01:05 54.7 °F /  12.6 °C 50.2 °F /  10.1 °C 30.1in /  1018.6hPa Calm     85% 0in /  0.0mm 0 W/m2
01:10 54.3 °F /  12.4 °C 49.8 °F /  9.9 °C 30.1in /  1018.6hPa Calm     85% 0in /  0.0mm 0 W/m2
01:15 54.1 °F /  12.3 °C 49.8 °F /  9.9 °C 30.1in /  1018.6hPa Calm     85% 0in /  0.0mm 0 W/m2
01:20 54.1 °F /  12.3 °C 50 °F /  10 °C 30.1in /  1018.6hPa Calm     86% 0in /  0.0mm 0 W/m2
01:25 54 °F /  12.2 °C 49.8 °F /  9.9 °C 30.1in /  1018.6hPa Calm     86% 0in /  0.0mm 0 W/m2
01:30 54 °F /  12.2 °C 49.8 °F /  9.9 °C 30.1in /  1018.6hPa Calm     86% 0in /  0.0mm 0 W/m2
01:35 53.8 °F /  12.1 °C 49.6 °F /  9.8 °C 30.1in /  1018.6hPa Calm     86% 0in /  0.0mm 0 W/m2
01:40 53.6 °F /  12 °C 49.8 °F /  9.9 °C 30.1in /  1018.6hPa Calm     87% 0in /  0.0mm 0 W/m2
01:45 53.4 °F /  11.9 °C 49.6 °F /  9.8 °C 30.1in /  1018.6hPa Calm     87% 0in /  0.0mm 0 W/m2
01:50 53.2 °F /  11.8 °C 49.5 °F /  9.7 °C 30.1in /  1018.6hPa Calm     87% 0in /  0.0mm 0 W/m2
01:55 53.2 °F /  11.8 °C 49.5 °F /  9.7 °C 30.1in /  1018.6hPa Calm     87% 0in /  0.0mm 0 W/m2
02:00 53.1 °F /  11.7 °C 49.6 °F /  9.8 °C 30.1in /  1018.6hPa Calm     88% 0in /  0.0mm 0 W/m2
02:05 53.1 °F /  11.7 °C 49.6 °F /  9.8 °C 30.1in /  1018.6hPa Calm     88% 0in /  0.0mm 0 W/m2
02:10 53.1 °F /  11.7 °C 49.6 °F /  9.8 °C 30.1in /  1018.6hPa Calm     88% 0in /  0.0mm 0 W/m2
02:15 52.9 °F /  11.6 °C 49.5 °F /  9.7 °C 30.1in /  1018.6hPa Calm     88% 0in /  0.0mm 0 W/m2
02:20 52.9 °F /  11.6 °C 49.6 °F /  9.8 °C 30.1in /  1018.6hPa Calm     89% 0in /  0.0mm 0 W/m2
02:26 52.9 °F /  11.6 °C 49.6 °F /  9.8 °C 30.1in /  1018.6hPa Calm     89% 0in /  0.0mm 0 W/m2
02:31 52.7 °F /  11.5 °C 49.5 °F /  9.7 °C 30.1in /  1018.6hPa Calm     89% 0in /  0.0mm 0 W/m2
02:36 52.7 °F /  11.5 °C 49.5 °F /  9.7 °C 30.1in /  1018.6hPa Calm     89% 0in /  0.0mm 0 W/m2
02:41 52.7 °F /  11.5 °C 49.5 °F /  9.7 °C 30.1in /  1018.6hPa Calm     89% 0in /  0.0mm 0 W/m2
02:46 52.5 °F /  11.4 °C 49.5 °F /  9.7 °C 30.1in /  1018.6hPa Calm     89% 0in /  0.0mm 0 W/m2
02:51 52.5 °F /  11.4 °C 49.6 °F /  9.8 °C 30.1in /  1018.6hPa Calm     90% 0in /  0.0mm 0 W/m2
02:56 52.3 °F /  11.3 °C 49.5 °F /  9.7 °C 30.1in /  1018.6hPa Calm     90% 0in /  0.0mm 0 W/m2
03:01 52.3 °F /  11.3 °C 49.5 °F /  9.7 °C 30.1in /  1018.6hPa Calm     90% 0in /  0.0mm 0 W/m2
03:06 52.3 °F /  11.3 °C 49.5 °F /  9.7 °C 30.1in /  1018.6hPa Calm     90% 0in /  0.0mm 0 W/m2
03:11 52.3 °F /  11.3 °C 49.5 °F /  9.7 °C 30.1in /  1018.6hPa Calm     90% 0in /  0.0mm 0 W/m2
03:16 52.3 °F /  11.3 °C 49.8 °F /  9.9 °C 30.1in /  1018.6hPa Calm     91% 0in /  0.0mm 0 W/m2
03:21 52.3 °F /  11.3 °C 49.5 °F /  9.7 °C 30.1in /  1018.6hPa Calm     90% 0in /  0.0mm 0 W/m2
03:26 52.2 °F /  11.2 °C 49.3 °F /  9.6 °C 30.1in /  1018.6hPa Calm     90% 0in /  0.0mm 0 W/m2
03:31 52.2 °F /  11.2 °C 49.3 °F /  9.6 °C 30.1in /  1018.6hPa Calm     90% 0in /  0.0mm 0 W/m2
03:36 52.2 °F /  11.2 °C 49.6 °F /  9.8 °C 30.1in /  1018.6hPa Calm     91% 0in /  0.0mm 0 W/m2
03:41 52 °F /  11.1 °C 49.5 °F /  9.7 °C 30.1in /  1018.6hPa Calm     91% 0in /  0.0mm 0 W/m2
03:46 52.2 °F /  11.2 °C 49.6 °F /  9.8 °C 30.1in /  1018.6hPa Calm     91% 0in /  0.0mm 0 W/m2
03:51 52.2 °F /  11.2 °C 49.6 °F /  9.8 °C 30.1in /  1018.6hPa Calm     91% 0in /  0.0mm 0 W/m2
03:56 52.2 °F /  11.2 °C 49.6 °F /  9.8 °C 30.1in /  1018.3hPa Calm     91% 0in /  0.0mm 0 W/m2
04:01 52.2 °F /  11.2 °C 49.6 °F /  9.8 °C 30.1in /  1018.3hPa Calm     91% 0in /  0.0mm 0 W/m2
04:06 52.2 °F /  11.2 °C 49.6 °F /  9.8 °C 30.1in /  1018.3hPa Calm     91% 0in /  0.0mm 0 W/m2
04:11 52.2 °F /  11.2 °C 49.6 °F /  9.8 °C 30.1in /  1018.3hPa Calm     91% 0in /  0.0mm 0 W/m2
04:16 52.2 °F /  11.2 °C 49.6 °F /  9.8 °C 30.1in /  1018.6hPa Calm     91% 0in /  0.0mm 0 W/m2
04:21 52.2 °F /  11.2 °C 49.6 °F /  9.8 °C 30.1in /  1018.6hPa Calm     91% 0in /  0.0mm 0 W/m2
04:26 52.2 °F /  11.2 °C 49.6 °F /  9.8 °C 30.1in /  1018.6hPa Calm     91% 0in /  0.0mm 0 W/m2
04:31 52.3 °F /  11.3 °C 49.8 °F /  9.9 °C 30.1in /  1018.6hPa Calm     91% 0in /  0.0mm 0 W/m2
04:36 52.3 °F /  11.3 °C 49.8 °F /  9.9 °C 30.1in /  1018.6hPa Calm     91% 0in /  0.0mm 0 W/m2
04:41 52.5 °F /  11.4 °C 50 °F /  10 °C 30.1in /  1018.6hPa Calm     91% 0in /  0.0mm 0 W/m2
04:46 52.7 °F /  11.5 °C 50.4 °F /  10.2 °C 30.1in /  1018.6hPa Calm     92% 0in /  0.0mm 0 W/m2
04:51 52.9 °F /  11.6 °C 50.4 °F /  10.2 °C 30.1in /  1018.6hPa Calm     91% 0in /  0.0mm 0 W/m2
04:56 53.1 °F /  11.7 °C 50.5 °F /  10.3 °C 30.1in /  1018.6hPa WNW 0.9mph /  1.4km/h 1mph /  1.6km/h 91% 0in /  0.0mm 0 W/m2
05:01 53.1 °F /  11.7 °C 50.5 °F /  10.3 °C 30.1in /  1018.6hPa Calm     91% 0in /  0.0mm 0 W/m2
05:06 53.2 °F /  11.8 °C 50.7 °F /  10.4 °C 30.1in /  1018.6hPa Calm     91% 0in /  0.0mm 0 W/m2
05:11 53.2 °F /  11.8 °C 50.7 °F /  10.4 °C 30.1in /  1018.3hPa Calm     91% 0in /  0.0mm 0 W/m2
05:16 53.2 °F /  11.8 °C 50.4 °F /  10.2 °C 30.1in /  1018.6hPa Calm     90% 0in /  0.0mm 0 W/m2
05:21 53.4 °F /  11.9 °C 50.5 °F /  10.3 °C 30.1in /  1018.6hPa Calm     90% 0in /  0.0mm 0 W/m2
05:26 53.4 °F /  11.9 °C 50.5 °F /  10.3 °C 30.1in /  1018.6hPa Calm     90% 0in /  0.0mm 0 W/m2
05:31 53.4 °F /  11.9 °C 50.5 °F /  10.3 °C 30.1in /  1018.6hPa Calm     90% 0in /  0.0mm 0 W/m2
05:36 53.4 °F /  11.9 °C 50.5 °F /  10.3 °C 30.1in /  1018.6hPa Calm     90% 0in /  0.0mm 0 W/m2
05:41 53.8 °F /  12.1 °C 50.9 °F /  10.5 °C 30.1in /  1018.6hPa Calm   1mph /  1.6km/h 90% 0in /  0.0mm 0 W/m2
05:46 53.8 °F /  12.1 °C 50.5 °F /  10.3 °C 30.1in /  1018.6hPa Calm     89% 0in /  0.0mm 0 W/m2
05:51 54 °F /  12.2 °C 50.7 °F /  10.4 °C 30.1in /  1018.6hPa Calm   1mph /  1.6km/h 89% 0in /  0.0mm 0 W/m2
05:56 54 °F /  12.2 °C 50.7 °F /  10.4 °C 30.1in /  1018.6hPa Calm     89% 0in /  0.0mm 0 W/m2
06:01 54 °F /  12.2 °C 50.7 °F /  10.4 °C 30.1in /  1018.6hPa Calm     89% 0in /  0.0mm 0 W/m2
06:06 54 °F /  12.2 °C 50.7 °F /  10.4 °C 30.1in /  1018.6hPa Calm     89% 0in /  0.0mm 0 W/m2
06:11 54.1 °F /  12.3 °C 50.9 °F /  10.5 °C 30.1in /  1018.6hPa Calm     89% 0in /  0.0mm 0 W/m2
06:16 54 °F /  12.2 °C 50.7 °F /  10.4 °C 30.1in /  1019.0hPa Calm   1mph /  1.6km/h 89% 0in /  0.0mm 0 W/m2
06:21 54.1 °F /  12.3 °C 50.9 °F /  10.5 °C 30.1in /  1018.6hPa Calm     89% 0in /  0.0mm 0 W/m2
06:26 54.1 °F /  12.3 °C 50.9 °F /  10.5 °C 30.1in /  1018.6hPa Calm     89% 0in /  0.0mm 0 W/m2
06:31 54.1 °F /  12.3 °C 50.9 °F /  10.5 °C 30.1in /  1018.6hPa Calm     89% 0in /  0.0mm 0 W/m2
06:36 54.1 °F /  12.3 °C 50.9 °F /  10.5 °C 30.1in /  1018.6hPa Calm     89% 0in /  0.0mm 0 W/m2
06:41 54.1 °F /  12.3 °C 50.9 °F /  10.5 °C 30.1in /  1018.6hPa Calm     89% 0in /  0.0mm 0 W/m2
06:46 54.1 °F /  12.3 °C 50.9 °F /  10.5 °C 30.1in /  1019.0hPa WNW 0.9mph /  1.4km/h 1mph /  1.6km/h 89% 0in /  0.0mm 0 W/m2
06:51 54.1 °F /  12.3 °C 50.9 °F /  10.5 °C 30.1in /  1019.0hPa Calm     89% 0in /  0.0mm 7 W/m2
06:56 54.3 °F /  12.4 °C 51.1 °F /  10.6 °C 30.1in /  1019.0hPa Calm   1mph /  1.6km/h 89% 0in /  0.0mm 0 W/m2
07:01 54.3 °F /  12.4 °C 51.1 °F /  10.6 °C 30.1in /  1019.0hPa Calm     89% 0in /  0.0mm 0 W/m2
07:06 54.3 °F /  12.4 °C 51.1 °F /  10.6 °C 30.1in /  1019.0hPa Calm     89% 0in /  0.0mm 0 W/m2
07:11 54.3 °F /  12.4 °C 51.4 °F /  10.8 °C 30.1in /  1019.0hPa Calm     90% 0in /  0.0mm 0 W/m2
07:16 54.5 °F /  12.5 °C 51.3 °F /  10.7 °C 30.1in /  1019.0hPa Calm     89% 0in /  0.0mm 5 W/m2
07:21 54.5 °F /  12.5 °C 51.3 °F /  10.7 °C 30.1in /  1019.0hPa Calm     89% 0in /  0.0mm 9 W/m2
07:26 54.5 °F /  12.5 °C 51.3 °F /  10.7 °C 30.1in /  1019.0hPa Calm     89% 0in /  0.0mm 11 W/m2
07:31 54.7 °F /  12.6 °C 51.4 °F /  10.8 °C 30.1in /  1019.0hPa Calm     89% 0in /  0.0mm 16 W/m2
07:36 54.7 °F /  12.6 °C 51.8 °F /  11 °C 30.1in /  1019.0hPa Calm     90% 0in /  0.0mm 25 W/m2
07:41 54.7 °F /  12.6 °C 51.8 °F /  11 °C 30.1in /  1019.0hPa Calm     90% 0in /  0.0mm 19 W/m2
07:46 54.9 °F /  12.7 °C 52 °F /  11.1 °C 30.1in /  1019.0hPa Calm     90% 0in /  0.0mm 16 W/m2
07:51 55 °F /  12.8 °C 51.8 °F /  11 °C 30.1in /  1019.0hPa Calm     89% 0in /  0.0mm 21 W/m2
07:56 55 °F /  12.8 °C 51.8 °F /  11 °C 30.1in /  1019.0hPa Calm     89% 0in /  0.0mm 40 W/m2
08:01 55.2 °F /  12.9 °C 52 °F /  11.1 °C 30.1in /  1019.3hPa Calm     89% 0in /  0.0mm 65 W/m2
08:06 55.6 °F /  13.1 °C 52.3 °F /  11.3 °C 30.1in /  1019.3hPa Calm     89% 0in /  0.0mm 83 W/m2
08:11 55.8 °F /  13.2 °C 52.3 °F /  11.3 °C 30.1in /  1019.3hPa Calm     88% 0in /  0.0mm 83 W/m2
08:16 56.1 °F /  13.4 °C 52.7 °F /  11.5 °C 30.1in /  1019.6hPa Calm     88% 0in /  0.0mm 70 W/m2
08:21 56.3 °F /  13.5 °C 52.5 °F /  11.4 °C 30.1in /  1019.6hPa NW 0.9mph /  1.4km/h 2mph /  3.2km/h 87% 0in /  0.0mm 33 W/m2
08:26 56.7 °F /  13.7 °C 52.5 °F /  11.4 °C 30.1in /  1019.6hPa NNE 0.9mph /  1.4km/h 2mph /  3.2km/h 86% 0in /  0.0mm 40 W/m2
08:31 56.8 °F /  13.8 °C 52.7 °F /  11.5 °C 30.1in /  1019.6hPa East 2mph /  3.2km/h 2mph /  3.2km/h 86% 0in /  0.0mm 56 W/m2
08:36 56.8 °F /  13.8 °C 52.3 °F /  11.3 °C 30.1in /  1019.6hPa East 0.9mph /  1.4km/h 1mph /  1.6km/h 85% 0in /  0.0mm 69 W/m2
08:42 57 °F /  13.9 °C 52.9 °F /  11.6 °C 30.1in /  1019.6hPa Calm     86% 0in /  0.0mm 88 W/m2
08:47 57.4 °F /  14.1 °C 52.9 °F /  11.6 °C 30.1in /  1019.6hPa Calm     85% 0in /  0.0mm 197 W/m2
08:52 57.6 °F /  14.2 °C 52.7 °F /  11.5 °C 30.1in /  1019.6hPa Calm     84% 0in /  0.0mm 84 W/m2
08:57 57.9 °F /  14.4 °C 52.7 °F /  11.5 °C 30.1in /  1019.6hPa Calm   1mph /  1.6km/h 83% 0in /  0.0mm 72 W/m2
09:02 58.3 °F /  14.6 °C 53.1 °F /  11.7 °C 30.1in /  1019.6hPa Calm   2mph /  3.2km/h 83% 0in /  0.0mm 77 W/m2
09:07 58.5 °F /  14.7 °C 53.1 °F /  11.7 °C 30.1in /  1020.0hPa East 2mph /  3.2km/h 2mph /  3.2km/h 82% 0in /  0.0mm 93 W/m2
09:12 58.6 °F /  14.8 °C 52.5 °F /  11.4 °C 30.1in /  1020.0hPa Calm   1mph /  1.6km/h 80% 0in /  0.0mm 102 W/m2
09:17 59 °F /  15 °C 52.5 °F /  11.4 °C 30.1in /  1020.0hPa Calm   1mph /  1.6km/h 79% 0in /  0.0mm 113 W/m2
09:22 59.4 °F /  15.2 °C 52.5 °F /  11.4 °C 30.1in /  1020.0hPa WNW 0.9mph /  1.4km/h 2mph /  3.2km/h 78% 0in /  0.0mm 109 W/m2
09:27 59.7 °F /  15.4 °C 52.5 °F /  11.4 °C 30.1in /  1020.3hPa NW 2mph /  3.2km/h 2mph /  3.2km/h 77% 0in /  0.0mm 113 W/m2
09:32 59.9 °F /  15.5 °C 52.3 °F /  11.3 °C 30.1in /  1020.3hPa WNW 0.9mph /  1.4km/h 3mph /  4.8km/h 76% 0in /  0.0mm 113 W/m2
09:37 60.1 °F /  15.6 °C 52.2 °F /  11.2 °C 30.1in /  1020.3hPa WNW 0.9mph /  1.4km/h 3mph /  4.8km/h 75% 0in /  0.0mm 134 W/m2
09:42 60.4 °F /  15.8 °C 52.2 °F /  11.2 °C 30.1in /  1020.3hPa Calm   3mph /  4.8km/h 74% 0in /  0.0mm 162 W/m2
09:47 60.8 °F /  16 °C 52.2 °F /  11.2 °C 30.1in /  1020.3hPa WNW 2mph /  3.2km/h 2mph /  3.2km/h 73% 0in /  0.0mm 174 W/m2
09:52 61.2 °F /  16.2 °C 52 °F /  11.1 °C 30.1in /  1020.3hPa WNW 2.9mph /  4.7km/h 3mph /  4.8km/h 72% 0in /  0.0mm 167 W/m2
09:57 61.3 °F /  16.3 °C 52.2 °F /  11.2 °C 30.1in /  1020.3hPa NW 2mph /  3.2km/h 2mph /  3.2km/h 72% 0in /  0.0mm 144 W/m2
10:02 61.9 °F /  16.6 °C 52.3 °F /  11.3 °C 30.1in /  1020.3hPa West 0.9mph /  1.4km/h 2mph /  3.2km/h 71% 0in /  0.0mm 197 W/m2
10:07 62.2 °F /  16.8 °C 52.3 °F /  11.3 °C 30.1in /  1020.3hPa Calm   2mph /  3.2km/h 70% 0in /  0.0mm 199 W/m2
10:13 62.8 °F /  17.1 °C 52.5 °F /  11.4 °C 30.1in /  1020.3hPa WNW 0.9mph /  1.4km/h 1mph /  1.6km/h 69% 0in /  0.0mm 183 W/m2
10:18 63 °F /  17.2 °C 51.8 °F /  11 °C 30.1in /  1020.3hPa WNW 2.9mph /  4.7km/h 3mph /  4.8km/h 67% 0in /  0.0mm 214 W/m2
10:23 63.1 °F /  17.3 °C 52 °F /  11.1 °C 30.1in /  1020.7hPa NW 2mph /  3.2km/h 3mph /  4.8km/h 67% 0in /  0.0mm 220 W/m2
10:28 63.3 °F /  17.4 °C 51.8 °F /  11 °C 30.1in /  1020.7hPa WSW 2mph /  3.2km/h 2mph /  3.2km/h 66% 0in /  0.0mm 197 W/m2
10:33 63.7 °F /  17.6 °C 52.2 °F /  11.2 °C 30.1in /  1020.7hPa WSW 0.9mph /  1.4km/h 4mph /  6.4km/h 66% 0in /  0.0mm 169 W/m2
10:38 63.9 °F /  17.7 °C 52.3 °F /  11.3 °C 30.1in /  1020.7hPa NW 2.9mph /  4.7km/h 6mph /  9.7km/h 66% 0in /  0.0mm 186 W/m2
10:43 64 °F /  17.8 °C 52.5 °F /  11.4 °C 30.1in /  1020.7hPa NW 2.9mph /  4.7km/h 7mph /  11.3km/h 66% 0in /  0.0mm 241 W/m2
10:48 64 °F /  17.8 °C 51.6 °F /  10.9 °C 30.1in /  1020.7hPa WNW 4.9mph /  7.9km/h 7mph /  11.3km/h 64% 0in /  0.0mm 211 W/m2
10:53 64 °F /  17.8 °C 51.6 °F /  10.9 °C 30.2in /  1021.0hPa WSW 2.9mph /  4.7km/h 6mph /  9.7km/h 64% 0in /  0.0mm 174 W/m2
10:58 64.2 °F /  17.9 °C 51.8 °F /  11 °C 30.1in /  1020.7hPa NW 2.9mph /  4.7km/h 5mph /  8km/h 64% 0in /  0.0mm 186 W/m2
11:03 64.2 °F /  17.9 °C 51.4 °F /  10.8 °C 30.2in /  1021.0hPa WNW 4.9mph /  7.9km/h 10mph /  16.1km/h 63% 0in /  0.0mm 195 W/m2
11:08 64.6 °F /  18.1 °C 51.6 °F /  10.9 °C 30.2in /  1021.0hPa WSW 4mph /  6.4km/h 6mph /  9.7km/h 63% 0in /  0.0mm 214 W/m2
11:13 64.9 °F /  18.3 °C 52 °F /  11.1 °C 30.2in /  1021.0hPa West 4mph /  6.4km/h 6mph /  9.7km/h 63% 0in /  0.0mm 301 W/m2
11:18 65.5 °F /  18.6 °C 51.6 °F /  10.9 °C 30.2in /  1021.0hPa West 6.9mph /  11.1km/h 10mph /  16.1km/h 61% 0in /  0.0mm 323 W/m2
11:23 65.5 °F /  18.6 °C 51.3 °F /  10.7 °C 30.2in /  1021.0hPa NNW 4.9mph /  7.9km/h 10mph /  16.1km/h 60% 0in /  0.0mm 339 W/m2
11:28 65.8 °F /  18.8 °C 52 °F /  11.1 °C 30.2in /  1021.0hPa WNW 2mph /  3.2km/h 6mph /  9.7km/h 61% 0in /  0.0mm 264 W/m2
11:33 66 °F /  18.9 °C 52.2 °F /  11.2 °C 30.2in /  1021.0hPa West 2.9mph /  4.7km/h 9mph /  14.5km/h 61% 0in /  0.0mm 265 W/m2
11:38 65.7 °F /  18.7 °C 51.8 °F /  11 °C 30.2in /  1021.0hPa NW 4mph /  6.4km/h 7mph /  11.3km/h 61% 0in /  0.0mm 218 W/m2
11:43 65.7 °F /  18.7 °C 52.3 °F /  11.3 °C 30.2in /  1021.0hPa NW 2.9mph /  4.7km/h 10mph /  16.1km/h 62% 0in /  0.0mm 225 W/m2
11:48 65.7 °F /  18.7 °C 51.8 °F /  11 °C 30.2in /  1021.0hPa West 4mph /  6.4km/h 7mph /  11.3km/h 61% 0in /  0.0mm 285 W/m2
11:53 65.7 °F /  18.7 °C 52.3 °F /  11.3 °C 30.2in /  1021.0hPa WSW 2mph /  3.2km/h 8mph /  12.9km/h 62% 0in /  0.0mm 281 W/m2
11:58 65.7 °F /  18.7 °C 51.4 °F /  10.8 °C 30.2in /  1021.0hPa WNW 2.9mph /  4.7km/h 4mph /  6.4km/h 60% 0in /  0.0mm 232 W/m2
12:03 65.8 °F /  18.8 °C 52 °F /  11.1 °C 30.1in /  1020.7hPa WNW 2mph /  3.2km/h 2mph /  3.2km/h 61% 0in /  0.0mm 362 W/m2
12:08 66.2 °F /  19 °C 51.4 °F /  10.8 °C 30.1in /  1020.7hPa NNW 2.9mph /  4.7km/h 3mph /  4.8km/h 59% 0in /  0.0mm 450 W/m2
12:13 66.4 °F /  19.1 °C 51.6 °F /  10.9 °C 30.1in /  1020.7hPa NW 4mph /  6.4km/h 4mph /  6.4km/h 59% 0in /  0.0mm 308 W/m2
12:18 66.7 °F /  19.3 °C 51.4 °F /  10.8 °C 30.1in /  1020.7hPa NW 2.9mph /  4.7km/h 3mph /  4.8km/h 58% 0in /  0.0mm 294 W/m2
12:23 66.9 °F /  19.4 °C 51.3 °F /  10.7 °C 30.1in /  1020.7hPa West 0.9mph /  1.4km/h 3mph /  4.8km/h 57% 0in /  0.0mm 392 W/m2
12:28 67.3 °F /  19.6 °C 51.1 °F /  10.6 °C 30.1in /  1020.7hPa Calm   4mph /  6.4km/h 56% 0in /  0.0mm 446 W/m2
12:33 67.5 °F /  19.7 °C 51.3 °F /  10.7 °C 30.1in /  1020.7hPa WNW 4mph /  6.4km/h 7mph /  11.3km/h 56% 0in /  0.0mm 397 W/m2
12:38 67.3 °F /  19.6 °C 51.1 °F /  10.6 °C 30.1in /  1020.7hPa Calm   4mph /  6.4km/h 56% 0in /  0.0mm 262 W/m2
12:43 67.5 °F /  19.7 °C 51.3 °F /  10.7 °C 30.1in /  1020.7hPa SSE 4mph /  6.4km/h 8mph /  12.9km/h 56% 0in /  0.0mm 234 W/m2
12:48 67.6 °F /  19.8 °C 51.4 °F /  10.8 °C 30.1in /  1020.7hPa West 0.9mph /  1.4km/h 2mph /  3.2km/h 56% 0in /  0.0mm 234 W/m2
12:53 67.6 °F /  19.8 °C 50.4 °F /  10.2 °C 30.2in /  1021.0hPa NW 2.9mph /  4.7km/h 6mph /  9.7km/h 54% 0in /  0.0mm 227 W/m2
12:58 67.6 °F /  19.8 °C 50.4 °F /  10.2 °C 30.2in /  1021.0hPa WNW 2mph /  3.2km/h 6mph /  9.7km/h 54% 0in /  0.0mm 237 W/m2
13:03 67.6 °F /  19.8 °C 50.4 °F /  10.2 °C 30.2in /  1021.0hPa WNW 2mph /  3.2km/h 7mph /  11.3km/h 54% 0in /  0.0mm 246 W/m2
13:08 67.6 °F /  19.8 °C 50.9 °F /  10.5 °C 30.2in /  1021.0hPa NNW 4.9mph /  7.9km/h 7mph /  11.3km/h 55% 0in /  0.0mm 257 W/m2
13:13 67.6 °F /  19.8 °C 50.4 °F /  10.2 °C 30.2in /  1021.0hPa NNE 2mph /  3.2km/h 7mph /  11.3km/h 54% 0in /  0.0mm 204 W/m2
13:18 67.6 °F /  19.8 °C 50.4 °F /  10.2 °C 30.1in /  1020.7hPa NW 2mph /  3.2km/h 6mph /  9.7km/h 54% 0in /  0.0mm 229 W/m2
13:23 67.6 °F /  19.8 °C 49.8 °F /  9.9 °C 30.1in /  1020.7hPa WNW 4mph /  6.4km/h 4mph /  6.4km/h 53% 0in /  0.0mm 202 W/m2
13:28 67.6 °F /  19.8 °C 49.8 °F /  9.9 °C 30.1in /  1020.7hPa WNW 0.9mph /  1.4km/h 3mph /  4.8km/h 53% 0in /  0.0mm 220 W/m2
13:33 67.6 °F /  19.8 °C 49.8 °F /  9.9 °C 30.1in /  1020.7hPa NW 2.9mph /  4.7km/h 4mph /  6.4km/h 53% 0in /  0.0mm 202 W/m2
13:38 67.8 °F /  19.9 °C 50 °F /  10 °C 30.1in /  1020.7hPa North 2mph /  3.2km/h 4mph /  6.4km/h 53% 0in /  0.0mm 255 W/m2
13:43 68.2 °F /  20.1 °C 50.4 °F /  10.2 °C 30.1in /  1020.7hPa NE 2mph /  3.2km/h 3mph /  4.8km/h 53% 0in /  0.0mm 401 W/m2
13:48 68.7 °F /  20.4 °C 50.4 °F /  10.2 °C 30.1in /  1020.7hPa ENE 2.9mph /  4.7km/h 3mph /  4.8km/h 52% 0in /  0.0mm 378 W/m2
13:53 69.3 °F /  20.7 °C 50.4 °F /  10.2 °C 30.1in /  1020.7hPa NNE 2mph /  3.2km/h 4mph /  6.4km/h 51% 0in /  0.0mm 364 W/m2
13:58 69.6 °F /  20.9 °C 50.7 °F /  10.4 °C 30.1in /  1020.3hPa ENE 2mph /  3.2km/h 3mph /  4.8km/h 51% 0in /  0.0mm 450 W/m2
14:03 70.2 °F /  21.2 °C 50.7 °F /  10.4 °C 30.1in /  1020.3hPa ENE 2.9mph /  4.7km/h 5mph /  8km/h 50% 0in /  0.0mm 454 W/m2
14:08 70.5 °F /  21.4 °C 50.4 °F /  10.2 °C 30.1in /  1020.3hPa WNW 2mph /  3.2km/h 5mph /  8km/h 49% 0in /  0.0mm 378 W/m2
14:13 70.9 °F /  21.6 °C 50.7 °F /  10.4 °C 30.1in /  1020.3hPa NW 2.9mph /  4.7km/h 8mph /  12.9km/h 49% 0in /  0.0mm 369 W/m2
14:18 71.2 °F /  21.8 °C 51.1 °F /  10.6 °C 30.1in /  1020.3hPa SE 2.9mph /  4.7km/h 4mph /  6.4km/h 49% 0in /  0.0mm 805 W/m2
14:23 72.3 °F /  22.4 °C 50.9 °F /  10.5 °C 30.1in /  1020.3hPa East 0.9mph /  1.4km/h 6mph /  9.7km/h 47% 0in /  0.0mm 738 W/m2
14:28 73 °F /  22.8 °C 51.1 °F /  10.6 °C 30.1in /  1020.3hPa WNW 4.9mph /  7.9km/h 7mph /  11.3km/h 46% 0in /  0.0mm 751 W/m2
14:33 72.9 °F /  22.7 °C 50.9 °F /  10.5 °C 30.1in /  1020.3hPa West 2mph /  3.2km/h 12mph /  19.3km/h 46% 0in /  0.0mm 336 W/m2
14:38 72.3 °F /  22.4 °C 50.4 °F /  10.2 °C 30.1in /  1020.3hPa WNW 4mph /  6.4km/h 5mph /  8km/h 46% 0in /  0.0mm 302 W/m2
14:43 72 °F /  22.2 °C 50 °F /  10 °C 30.1in /  1020.3hPa West 2mph /  3.2km/h 12mph /  19.3km/h 46% 0in /  0.0mm 343 W/m2
14:48 71.8 °F /  22.1 °C 50.5 °F /  10.3 °C 30.1in /  1020.3hPa West 4mph /  6.4km/h 8mph /  12.9km/h 47% 0in /  0.0mm 396 W/m2
14:53 72 °F /  22.2 °C 51.3 °F /  10.7 °C 30.1in /  1020.3hPa East 2.9mph /  4.7km/h 11mph /  17.7km/h 48% 0in /  0.0mm 417 W/m2
14:58 72.1 °F /  22.3 °C 50.7 °F /  10.4 °C 30.1in /  1020.3hPa North 2mph /  3.2km/h 6mph /  9.7km/h 47% 0in /  0.0mm 410 W/m2
15:03 72.3 °F /  22.4 °C 50.4 °F /  10.2 °C 30.1in /  1020.0hPa West 0.9mph /  1.4km/h 8mph /  12.9km/h 46% 0in /  0.0mm 355 W/m2
15:08 72.3 °F /  22.4 °C 50.4 °F /  10.2 °C 30.1in /  1020.3hPa West 2.9mph /  4.7km/h 10mph /  16.1km/h 46% 0in /  0.0mm 329 W/m2
15:13 72.5 °F /  22.5 °C 51.1 °F /  10.6 °C 30.1in /  1020.0hPa SW 2.9mph /  4.7km/h 6mph /  9.7km/h 47% 0in /  0.0mm 362 W/m2
15:18 72.7 °F /  22.6 °C 51.3 °F /  10.7 °C 30.1in /  1020.0hPa WNW 2.9mph /  4.7km/h 9mph /  14.5km/h 47% 0in /  0.0mm 308 W/m2
15:23 73 °F /  22.8 °C 51.6 °F /  10.9 °C 30.1in /  1020.3hPa WNW 2mph /  3.2km/h 3mph /  4.8km/h 47% 0in /  0.0mm 279 W/m2
15:28 73.2 °F /  22.9 °C 51.8 °F /  11 °C 30.1in /  1020.0hPa West 0.9mph /  1.4km/h 5mph /  8km/h 47% 0in /  0.0mm 223 W/m2
15:33 73.2 °F /  22.9 °C 51.8 °F /  11 °C 30.1in /  1020.0hPa Calm   4mph /  6.4km/h 47% 0in /  0.0mm 213 W/m2
15:38 73 °F /  22.8 °C 51.1 °F /  10.6 °C 30.1in /  1020.0hPa ESE 4.9mph /  7.9km/h 7mph /  11.3km/h 46% 0in /  0.0mm 181 W/m2
15:43 72.9 °F /  22.7 °C 50.9 °F /  10.5 °C 30.1in /  1020.3hPa NW 2mph /  3.2km/h 6mph /  9.7km/h 46% 0in /  0.0mm 171 W/m2
15:48 72.7 °F /  22.6 °C 51.3 °F /  10.7 °C 30.1in /  1020.0hPa WNW 6.9mph /  11.1km/h 7mph /  11.3km/h 47% 0in /  0.0mm 158 W/m2
15:53 72.7 °F /  22.6 °C 51.3 °F /  10.7 °C 30.1in /  1020.0hPa NNW 2mph /  3.2km/h 8mph /  12.9km/h 47% 0in /  0.0mm 202 W/m2
15:58 72.7 °F /  22.6 °C 51.3 °F /  10.7 °C 30.1in /  1020.0hPa West 2.9mph /  4.7km/h 6mph /  9.7km/h 47% 0in /  0.0mm 192 W/m2
16:03 72.7 °F /  22.6 °C 51.3 °F /  10.7 °C 30.1in /  1020.0hPa SSW 2.9mph /  4.7km/h 6mph /  9.7km/h 47% 0in /  0.0mm 176 W/m2
16:08 72.7 °F /  22.6 °C 51.8 °F /  11 °C 30.1in /  1020.0hPa East 2mph /  3.2km/h 3mph /  4.8km/h 48% 0in /  0.0mm 199 W/m2
16:13 72.7 °F /  22.6 °C 51.3 °F /  10.7 °C 30.1in /  1020.0hPa NW 0.9mph /  1.4km/h 4mph /  6.4km/h 47% 0in /  0.0mm 158 W/m2
16:19 72.7 °F /  22.6 °C 50.7 °F /  10.4 °C 30.1in /  1020.0hPa North 2.9mph /  4.7km/h 4mph /  6.4km/h 46% 0in /  0.0mm 179 W/m2
16:24 72.9 °F /  22.7 °C 50.9 °F /  10.5 °C 30.1in /  1020.0hPa West 2mph /  3.2km/h 2mph /  3.2km/h 46% 0in /  0.0mm 178 W/m2
16:29 72.9 °F /  22.7 °C 51.4 °F /  10.8 °C 30.1in /  1020.0hPa Calm     47% 0in /  0.0mm 190 W/m2
16:34 73 °F /  22.8 °C 52.7 °F /  11.5 °C 30.1in /  1020.0hPa Calm   2mph /  3.2km/h 49% 0in /  0.0mm 176 W/m2
16:39 73 °F /  22.8 °C 51.1 °F /  10.6 °C 30.1in /  1020.0hPa East 2.9mph /  4.7km/h 3mph /  4.8km/h 46% 0in /  0.0mm 183 W/m2
16:44 73.2 °F /  22.9 °C 51.3 °F /  10.7 °C 30.1in /  1019.6hPa NW 2mph /  3.2km/h 4mph /  6.4km/h 46% 0in /  0.0mm 237 W/m2
16:49 73.6 °F /  23.1 °C 51.4 °F /  10.8 °C 30.1in /  1019.6hPa WNW 4.9mph /  7.9km/h 5mph /  8km/h 46% 0in /  0.0mm 401 W/m2
16:54 74.7 °F /  23.7 °C 52.5 °F /  11.4 °C 30.1in /  1019.6hPa West 2.9mph /  4.7km/h 3mph /  4.8km/h 46% 0in /  0.0mm 561 W/m2
16:59 75.6 °F /  24.2 °C 51.4 °F /  10.8 °C 30.1in /  1019.6hPa West 6.9mph /  11.1km/h 7mph /  11.3km/h 43% 0in /  0.0mm 589 W/m2
17:04 75.4 °F /  24.1 °C 52 °F /  11.1 °C 30.1in /  1019.6hPa West 2.9mph /  4.7km/h 7mph /  11.3km/h 44% 0in /  0.0mm 295 W/m2
17:09 75.6 °F /  24.2 °C 52.7 °F /  11.5 °C 30.1in /  1019.6hPa NE 2mph /  3.2km/h 4mph /  6.4km/h 45% 0in /  0.0mm 357 W/m2
17:14 75.9 °F /  24.4 °C 52.5 °F /  11.4 °C 30.1in /  1019.6hPa WSW 2mph /  3.2km/h 5mph /  8km/h 44% 0in /  0.0mm 260 W/m2
17:19 75.7 °F /  24.3 °C 51.6 °F /  10.9 °C 30.1in /  1019.6hPa Calm   4mph /  6.4km/h 43% 0in /  0.0mm 209 W/m2
17:24 75.7 °F /  24.3 °C 51.6 °F /  10.9 °C 30.1in /  1019.6hPa NW 2.9mph /  4.7km/h 5mph /  8km/h 43% 0in /  0.0mm 373 W/m2
17:29 75.7 °F /  24.3 °C 52.3 °F /  11.3 °C 30.1in /  1019.6hPa North 2mph /  3.2km/h 2mph /  3.2km/h 44% 0in /  0.0mm 301 W/m2
17:34 75.7 °F /  24.3 °C 51.6 °F /  10.9 °C 30.1in /  1019.6hPa NNW 2mph /  3.2km/h 3mph /  4.8km/h 43% 0in /  0.0mm 214 W/m2
17:39 76.1 °F /  24.5 °C 52.5 °F /  11.4 °C 30.1in /  1019.6hPa West 0.9mph /  1.4km/h 4mph /  6.4km/h 44% 0in /  0.0mm 475 W/m2
17:44 76.3 °F /  24.6 °C 52.2 °F /  11.2 °C 30.1in /  1019.6hPa Calm   4mph /  6.4km/h 43% 0in /  0.0mm 302 W/m2
17:49 76.5 °F /  24.7 °C 52.3 °F /  11.3 °C 30.1in /  1019.6hPa WNW 4.9mph /  7.9km/h 8mph /  12.9km/h 43% 0in /  0.0mm 445 W/m2
17:54 77 °F /  25 °C 52.9 °F /  11.6 °C 30.1in /  1019.6hPa WSW 2.9mph /  4.7km/h 4mph /  6.4km/h 43% 0in /  0.0mm 376 W/m2
17:59 76.6 °F /  24.8 °C 51.8 °F /  11 °C 30.1in /  1019.6hPa WNW 2mph /  3.2km/h 8mph /  12.9km/h 42% 0in /  0.0mm 139 W/m2
18:04 76.3 °F /  24.6 °C 52.2 °F /  11.2 °C 30.1in /  1019.6hPa SW 0.9mph /  1.4km/h 2mph /  3.2km/h 43% 0in /  0.0mm 123 W/m2
18:09 76.3 °F /  24.6 °C 52.7 °F /  11.5 °C 30.1in /  1019.6hPa NW 6mph /  9.7km/h 6mph /  9.7km/h 44% 0in /  0.0mm 336 W/m2
18:14 76.5 °F /  24.7 °C 52.3 °F /  11.3 °C 30.1in /  1019.6hPa NW 2mph /  3.2km/h 3mph /  4.8km/h 43% 0in /  0.0mm 135 W/m2
18:19 76.5 °F /  24.7 °C 52.9 °F /  11.6 °C 30.1in /  1019.6hPa NNW 2.9mph /  4.7km/h 5mph /  8km/h 44% 0in /  0.0mm 139 W/m2
18:24 76.3 °F /  24.6 °C 52.2 °F /  11.2 °C 30.1in /  1019.6hPa SW 2mph /  3.2km/h 4mph /  6.4km/h 43% 0in /  0.0mm 111 W/m2
18:29 75.9 °F /  24.4 °C 52.5 °F /  11.4 °C 30.1in /  1019.6hPa North 2mph /  3.2km/h 4mph /  6.4km/h 44% 0in /  0.0mm 111 W/m2
18:34 75.9 °F /  24.4 °C 53.6 °F /  12 °C 30.1in /  1019.6hPa Calm   1mph /  1.6km/h 46% 0in /  0.0mm 105 W/m2
18:39 75.7 °F /  24.3 °C 52.9 °F /  11.6 °C 30.1in /  1019.6hPa SW 0.9mph /  1.4km/h 1mph /  1.6km/h 45% 0in /  0.0mm 77 W/m2
18:44 75.7 °F /  24.3 °C 52.9 °F /  11.6 °C 30.1in /  1019.6hPa West 2.9mph /  4.7km/h 8mph /  12.9km/h 45% 0in /  0.0mm 62 W/m2
18:49 75.6 °F /  24.2 °C 52.7 °F /  11.5 °C 30.1in /  1019.6hPa NW 2.9mph /  4.7km/h 3mph /  4.8km/h 45% 0in /  0.0mm 63 W/m2
18:54 75.4 °F /  24.1 °C 52.5 °F /  11.4 °C 30.1in /  1020.0hPa West 0.9mph /  1.4km/h 6mph /  9.7km/h 45% 0in /  0.0mm 56 W/m2
18:59 75 °F /  23.9 °C 52.2 °F /  11.2 °C 30.1in /  1020.0hPa NW 4.9mph /  7.9km/h 7mph /  11.3km/h 45% 0in /  0.0mm 53 W/m2
19:04 75 °F /  23.9 °C 52.9 °F /  11.6 °C 30.1in /  1020.0hPa NW 2mph /  3.2km/h 10mph /  16.1km/h 46% 0in /  0.0mm 47 W/m2
19:09 74.8 °F /  23.8 °C 52.2 °F /  11.2 °C 30.1in /  1020.0hPa West 6mph /  9.7km/h 11mph /  17.7km/h 45% 0in /  0.0mm 60 W/m2
19:14 74.8 °F /  23.8 °C 52.7 °F /  11.5 °C 30.1in /  1020.0hPa WNW 2mph /  3.2km/h 3mph /  4.8km/h 46% 0in /  0.0mm 47 W/m2
19:19 74.7 °F /  23.7 °C 53.1 °F /  11.7 °C 30.1in /  1020.0hPa WSW 2mph /  3.2km/h 2mph /  3.2km/h 47% 0in /  0.0mm 56 W/m2
19:24 74.7 °F /  23.7 °C 52.5 °F /  11.4 °C 30.1in /  1020.0hPa NW 2.9mph /  4.7km/h 3mph /  4.8km/h 46% 0in /  0.0mm 49 W/m2
19:29 74.5 °F /  23.6 °C 52.9 °F /  11.6 °C 30.1in /  1020.0hPa West 2mph /  3.2km/h 3mph /  4.8km/h 47% 0in /  0.0mm 40 W/m2
19:34 74.5 °F /  23.6 °C 52.9 °F /  11.6 °C 30.1in /  1020.0hPa NW 2.9mph /  4.7km/h 5mph /  8km/h 47% 0in /  0.0mm 35 W/m2
19:39 74.3 °F /  23.5 °C 53.4 °F /  11.9 °C 30.1in /  1020.0hPa West 0.9mph /  1.4km/h 3mph /  4.8km/h 48% 0in /  0.0mm 26 W/m2
19:44 74.1 °F /  23.4 °C 53.2 °F /  11.8 °C 30.1in /  1020.0hPa Calm   5mph /  8km/h 48% 0in /  0.0mm 19 W/m2
19:49 73.9 °F /  23.3 °C 53.6 °F /  12 °C 30.1in /  1020.0hPa Calm     49% 0in /  0.0mm 21 W/m2
19:54 73.8 °F /  23.2 °C 53.4 °F /  11.9 °C 30.1in /  1020.0hPa Calm   2mph /  3.2km/h 49% 0in /  0.0mm 19 W/m2
19:59 73.6 °F /  23.1 °C 54.3 °F /  12.4 °C 30.1in /  1020.0hPa Calm     51% 0in /  0.0mm 12 W/m2
20:05 73 °F /  22.8 °C 55.4 °F /  13 °C 30.1in /  1020.3hPa Calm   2mph /  3.2km/h 54% 0in /  0.0mm 7 W/m2
20:10 72.7 °F /  22.6 °C 55.6 °F /  13.1 °C 30.1in /  1020.3hPa Calm   1mph /  1.6km/h 55% 0in /  0.0mm 5 W/m2
20:15 72 °F /  22.2 °C 54.9 °F /  12.7 °C 30.1in /  1020.3hPa Calm   1mph /  1.6km/h 55% 0in /  0.0mm 0 W/m2
20:20 71.4 °F /  21.9 °C 54.9 °F /  12.7 °C 30.1in /  1020.3hPa Calm     56% 0in /  0.0mm 0 W/m2
20:25 70.9 °F /  21.6 °C 54.9 °F /  12.7 °C 30.1in /  1020.3hPa Calm   1mph /  1.6km/h 57% 0in /  0.0mm 0 W/m2
20:30 70.3 °F /  21.3 °C 54.9 °F /  12.7 °C 30.1in /  1020.3hPa Calm   1mph /  1.6km/h 58% 0in /  0.0mm 0 W/m2
20:35 70.2 °F /  21.2 °C 55.2 °F /  12.9 °C 30.1in /  1020.7hPa Calm   1mph /  1.6km/h 59% 0in /  0.0mm 0 W/m2
20:40 69.8 °F /  21 °C 54.9 °F /  12.7 °C 30.1in /  1020.7hPa WNW 2mph /  3.2km/h 2mph /  3.2km/h 59% 0in /  0.0mm 0 W/m2
20:45 69.6 °F /  20.9 °C 54.1 °F /  12.3 °C 30.1in /  1020.7hPa Calm   1mph /  1.6km/h 58% 0in /  0.0mm 0 W/m2
20:50 69.4 °F /  20.8 °C 54.5 °F /  12.5 °C 30.1in /  1020.7hPa Calm     59% 0in /  0.0mm 0 W/m2
20:55 69.4 °F /  20.8 °C 54.5 °F /  12.5 °C 30.1in /  1020.7hPa Calm     59% 0in /  0.0mm 0 W/m2
21:00 69.3 °F /  20.7 °C 54.9 °F /  12.7 °C 30.1in /  1020.7hPa Calm     60% 0in /  0.0mm 0 W/m2
21:05 69.3 °F /  20.7 °C 54.9 °F /  12.7 °C 30.1in /  1020.7hPa WNW 0.9mph /  1.4km/h 2mph /  3.2km/h 60% 0in /  0.0mm 0 W/m2
21:10 69.1 °F /  20.6 °C 54.7 °F /  12.6 °C 30.1in /  1020.7hPa WNW 0.9mph /  1.4km/h 2mph /  3.2km/h 60% 0in /  0.0mm 0 W/m2
21:15 69.1 °F /  20.6 °C 54.7 °F /  12.6 °C 30.1in /  1020.7hPa WNW 0.9mph /  1.4km/h 2mph /  3.2km/h 60% 0in /  0.0mm 0 W/m2
21:20 69.1 °F /  20.6 °C 55 °F /  12.8 °C 30.1in /  1020.7hPa Calm   1mph /  1.6km/h 61% 0in /  0.0mm 0 W/m2
21:25 68.9 °F /  20.5 °C 55.4 °F /  13 °C 30.1in /  1020.7hPa Calm   1mph /  1.6km/h 62% 0in /  0.0mm 0 W/m2
21:30 68.7 °F /  20.4 °C 54.7 °F /  12.6 °C 30.2in /  1021.0hPa Calm   1mph /  1.6km/h 61% 0in /  0.0mm 0 W/m2
21:35 68.7 °F /  20.4 °C 54.7 °F /  12.6 °C 30.2in /  1021.0hPa WNW 0.9mph /  1.4km/h 2mph /  3.2km/h 61% 0in /  0.0mm 0 W/m2
21:40 68.7 °F /  20.4 °C 54.7 °F /  12.6 °C 30.2in /  1021.0hPa Calm   1mph /  1.6km/h 61% 0in /  0.0mm 0 W/m2
21:45 68.5 °F /  20.3 °C 55 °F /  12.8 °C 30.2in /  1021.0hPa Calm     62% 0in /  0.0mm 0 W/m2
21:50 68.5 °F /  20.3 °C 55 °F /  12.8 °C 30.2in /  1021.0hPa Calm   1mph /  1.6km/h 62% 0in /  0.0mm 0 W/m2
21:55 68.4 °F /  20.2 °C 54.9 °F /  12.7 °C 30.2in /  1021.0hPa Calm     62% 0in /  0.0mm 0 W/m2
22:00 68.4 °F /  20.2 °C 54.9 °F /  12.7 °C 30.2in /  1021.0hPa Calm     62% 0in /  0.0mm 0 W/m2
22:05 68.2 °F /  20.1 °C 55 °F /  12.8 °C 30.2in /  1021.0hPa Calm     63% 0in /  0.0mm 0 W/m2
22:10 68 °F /  20 °C 54.5 °F /  12.5 °C 30.2in /  1021.0hPa Calm     62% 0in /  0.0mm 0 W/m2
22:15 67.8 °F /  19.9 °C 54.7 °F /  12.6 °C 30.2in /  1021.0hPa Calm     63% 0in /  0.0mm 0 W/m2
22:21 67.8 °F /  19.9 °C 54.7 °F /  12.6 °C 30.2in /  1021.3hPa Calm     63% 0in /  0.0mm 0 W/m2
22:26 67.6 °F /  19.8 °C 55 °F /  12.8 °C 30.2in /  1021.0hPa Calm     64% 0in /  0.0mm 0 W/m2
22:31 67.6 °F /  19.8 °C 55 °F /  12.8 °C 30.2in /  1021.3hPa Calm     64% 0in /  0.0mm 0 W/m2
22:36 67.5 °F /  19.7 °C 54.9 °F /  12.7 °C 30.2in /  1021.3hPa Calm     64% 0in /  0.0mm 0 W/m2
22:41 67.5 °F /  19.7 °C 54.5 °F /  12.5 °C 30.2in /  1021.3hPa West 0.9mph /  1.4km/h 2mph /  3.2km/h 63% 0in /  0.0mm 0 W/m2
22:46 67.5 °F /  19.7 °C 54.9 °F /  12.7 °C 30.2in /  1021.3hPa Calm   1mph /  1.6km/h 64% 0in /  0.0mm 0 W/m2
22:51 67.6 °F /  19.8 °C 54.7 °F /  12.6 °C 30.2in /  1021.3hPa Calm   2mph /  3.2km/h 63% 0in /  0.0mm 0 W/m2
22:56 67.6 °F /  19.8 °C 54.7 °F /  12.6 °C 30.2in /  1021.3hPa Calm     63% 0in /  0.0mm 0 W/m2
23:01 67.6 °F /  19.8 °C 54.1 °F /  12.3 °C 30.2in /  1021.0hPa Calm   1mph /  1.6km/h 62% 0in /  0.0mm 0 W/m2
23:06 67.6 °F /  19.8 °C 53.8 °F /  12.1 °C 30.2in /  1021.3hPa SW 0.9mph /  1.4km/h 1mph /  1.6km/h 61% 0in /  0.0mm 0 W/m2
23:11 68.2 °F /  20.1 °C 52.3 °F /  11.3 °C 30.2in /  1021.0hPa Calm   2mph /  3.2km/h 57% 0in /  0.0mm 0 W/m2
23:16 68.7 °F /  20.4 °C 53.8 °F /  12.1 °C 30.2in /  1021.0hPa Calm   1mph /  1.6km/h 59% 0in /  0.0mm 0 W/m2
23:21 68.9 °F /  20.5 °C 54 °F /  12.2 °C 30.2in /  1021.0hPa Calm     59% 0in /  0.0mm 0 W/m2
23:26 68.9 °F /  20.5 °C 53.6 °F /  12 °C 30.2in /  1021.0hPa Calm   1mph /  1.6km/h 58% 0in /  0.0mm 0 W/m2
23:31 68.9 °F /  20.5 °C 53.1 °F /  11.7 °C 30.2in /  1021.0hPa Calm   1mph /  1.6km/h 57% 0in /  0.0mm 0 W/m2
23:36 68.7 °F /  20.4 °C 54.3 °F /  12.4 °C 30.2in /  1021.0hPa Calm     60% 0in /  0.0mm 0 W/m2
23:41 68.5 °F /  20.3 °C 54.1 °F /  12.3 °C 30.2in /  1021.0hPa Calm     60% 0in /  0.0mm 0 W/m2
23:46 68.4 °F /  20.2 °C 54.3 °F /  12.4 °C 30.2in /  1021.0hPa Calm     61% 0in /  0.0mm 0 W/m2
23:51 68.2 °F /  20.1 °C 54.7 °F /  12.6 °C 30.2in /  1021.0hPa Calm     62% 0in /  0.0mm 0 W/m2
23:56 68.2 °F /  20.1 °C 54.7 °F /  12.6 °C 30.2in /  1021.0hPa Calm     62% 0in /  0.0mm 0 W/m2
Juneau County Weather
Compliments of Weather Underground - 4 mb